createdAt,value
2022-07-30T00:01:37.765Z,28.00
2022-07-30T00:04:05.256Z,28.00
2022-07-30T00:06:32.863Z,27.90
2022-07-30T00:09:00.142Z,28.00
2022-07-30T00:11:28.168Z,28.00
2022-07-30T00:13:55.965Z,28.00
2022-07-30T00:16:23.604Z,28.00
2022-07-30T00:18:50.853Z,27.90
2022-07-30T00:21:36.272Z,27.90
2022-07-30T00:24:08.545Z,27.80
2022-07-30T00:26:35.926Z,27.80
2022-07-30T00:29:04.104Z,27.80
2022-07-30T00:31:31.868Z,27.90
2022-07-30T00:33:59.100Z,27.80
2022-07-30T00:36:26.365Z,27.80
2022-07-30T00:38:53.619Z,27.80
2022-07-30T00:41:21.967Z,27.80
2022-07-30T00:43:49.294Z,27.70
2022-07-30T00:46:16.541Z,27.70
2022-07-30T00:48:44.323Z,27.70
2022-07-30T00:51:11.946Z,27.60
2022-07-30T00:53:39.163Z,27.60
2022-07-30T00:56:06.532Z,27.60
2022-07-30T00:58:33.852Z,27.50
2022-07-30T01:01:01.210Z,27.50
2022-07-30T01:03:28.946Z,27.50
2022-07-30T01:05:56.393Z,27.50
2022-07-30T01:08:23.607Z,27.50
2022-07-30T01:10:52.404Z,27.50
2022-07-30T01:13:19.735Z,27.50
2022-07-30T01:15:47.905Z,27.50
2022-07-30T01:18:16.142Z,27.50
2022-07-30T01:21:07.588Z,27.40
2022-07-30T01:23:44.089Z,27.40
2022-07-30T01:26:14.980Z,27.30
2022-07-30T01:28:46.476Z,27.30
2022-07-30T01:31:14.839Z,27.30
2022-07-30T01:33:47.630Z,27.30
2022-07-30T01:36:20.901Z,27.20
2022-07-30T01:38:51.317Z,27.30
2022-07-30T01:41:20.458Z,27.30
2022-07-30T01:43:48.942Z,27.30
2022-07-30T01:46:17.785Z,27.20
2022-07-30T01:48:48.462Z,27.20
2022-07-30T01:51:19.362Z,27.10
2022-07-30T01:53:51.078Z,27.10
2022-07-30T01:56:24.675Z,27.00
2022-07-30T01:58:55.557Z,27.00
2022-07-30T02:01:25.790Z,26.90
2022-07-30T02:04:00.514Z,26.90
2022-07-30T02:06:37.308Z,26.90
2022-07-30T02:09:10.774Z,26.90
2022-07-30T02:12:07.790Z,26.90
2022-07-30T02:15:06.005Z,26.90
2022-07-30T02:17:45.188Z,26.80
2022-07-30T02:20:14.641Z,26.80
2022-07-30T02:22:47.293Z,26.80
2022-07-30T02:25:20.681Z,26.80
2022-07-30T02:27:56.534Z,26.80
2022-07-30T02:30:28.048Z,26.80
2022-07-30T02:33:02.322Z,26.80
2022-07-30T02:35:30.345Z,26.70
2022-07-30T02:37:59.874Z,26.70
2022-07-30T02:40:28.520Z,26.70
2022-07-30T02:42:57.158Z,26.70
2022-07-30T02:45:28.114Z,26.60
2022-07-30T02:48:01.184Z,26.60
2022-07-30T02:50:29.227Z,26.60
2022-07-30T02:52:59.460Z,26.50
2022-07-30T02:55:29.341Z,26.50
2022-07-30T02:57:57.542Z,26.50
2022-07-30T03:00:27.309Z,26.50
2022-07-30T03:02:57.154Z,26.50
2022-07-30T03:05:26.553Z,26.50
2022-07-30T03:07:57.781Z,26.60
2022-07-30T03:10:26.232Z,26.60
2022-07-30T03:12:54.009Z,26.60
2022-07-30T03:15:21.446Z,26.60
2022-07-30T03:17:55.559Z,26.60
2022-07-30T03:20:29.654Z,26.60
2022-07-30T03:22:59.613Z,26.70
2022-07-30T03:25:32.203Z,26.60
2022-07-30T03:28:03.836Z,26.70
2022-07-30T03:30:33.641Z,26.60
2022-07-30T03:33:02.517Z,26.60
2022-07-30T03:35:31.353Z,26.60
2022-07-30T03:38:00.603Z,26.60
2022-07-30T03:40:28.868Z,26.60
2022-07-30T03:42:56.892Z,26.50
2022-07-30T03:45:26.581Z,26.50
2022-07-30T03:48:00.084Z,26.50
2022-07-30T03:50:29.196Z,26.50
2022-07-30T03:52:56.846Z,26.50
2022-07-30T03:55:25.979Z,26.50
2022-07-30T03:58:11.820Z,26.50
2022-07-30T04:00:40.697Z,26.50
2022-07-30T04:03:08.506Z,26.40
2022-07-30T04:05:48.182Z,26.50
2022-07-30T04:08:16.257Z,26.50
2022-07-30T04:10:44.439Z,26.50
2022-07-30T04:13:17.749Z,26.70
2022-07-30T04:16:40.927Z,26.70
2022-07-30T04:19:11.188Z,26.80
2022-07-30T04:21:41.530Z,26.90
2022-07-30T04:24:12.775Z,26.90
2022-07-30T04:26:40.639Z,26.90
2022-07-30T04:29:13.497Z,26.80
2022-07-30T04:31:42.191Z,26.80
2022-07-30T04:34:49.195Z,26.80
2022-07-30T04:37:24.400Z,26.90
2022-07-30T04:39:54.834Z,26.90
2022-07-30T04:42:22.742Z,27.00
2022-07-30T04:45:00.723Z,27.00
2022-07-30T04:47:32.757Z,27.00
2022-07-30T04:50:24.447Z,27.00
2022-07-30T04:52:56.088Z,27.00
2022-07-30T04:55:34.519Z,27.10
2022-07-30T04:58:03.411Z,27.10
2022-07-30T05:00:40.472Z,27.10
2022-07-30T05:03:13.310Z,27.20
2022-07-30T05:05:44.525Z,27.20
2022-07-30T05:08:13.255Z,27.20
2022-07-30T05:10:41.396Z,27.30
2022-07-30T05:13:14.375Z,27.30
2022-07-30T05:15:44.818Z,27.30
2022-07-30T05:18:13.952Z,27.30
2022-07-30T05:20:43.712Z,27.30
2022-07-30T05:23:21.665Z,27.30
2022-07-30T05:26:11.923Z,27.40
2022-07-30T05:28:44.219Z,27.40
2022-07-30T05:31:16.513Z,27.40
2022-07-30T05:33:56.890Z,27.50
2022-07-30T05:36:35.461Z,27.40
2022-07-30T05:39:03.795Z,27.40
2022-07-30T05:41:39.109Z,27.40
2022-07-30T05:44:20.793Z,27.50
2022-07-30T05:46:52.026Z,27.50
2022-07-30T05:49:20.093Z,27.50
2022-07-30T05:51:47.497Z,27.50
2022-07-30T05:54:18.022Z,27.50
2022-07-30T05:57:08.042Z,27.50
2022-07-30T05:59:38.573Z,27.40
2022-07-30T06:02:10.114Z,27.40
2022-07-30T06:04:57.711Z,27.50
2022-07-30T06:07:25.742Z,27.60
2022-07-30T06:10:00.017Z,27.70
2022-07-30T06:12:29.069Z,27.70
2022-07-30T06:14:56.905Z,27.80
2022-07-30T06:17:39.764Z,27.90
2022-07-30T06:20:21.350Z,27.90
2022-07-30T06:23:08.824Z,27.90
2022-07-30T06:26:02.341Z,28.00
2022-07-30T06:28:38.788Z,28.10
2022-07-30T06:31:16.443Z,28.20
2022-07-30T06:33:43.903Z,28.40
2022-07-30T06:36:14.197Z,28.30
2022-07-30T06:39:14.166Z,28.40
2022-07-30T06:41:54.679Z,28.50
2022-07-30T06:44:23.094Z,28.60
2022-07-30T06:47:09.190Z,28.60
2022-07-30T06:49:39.443Z,28.80
2022-07-30T06:52:09.753Z,28.90
2022-07-30T06:54:37.021Z,29.00
2022-07-30T06:57:15.562Z,29.00
2022-07-30T06:59:56.319Z,29.10
2022-07-30T07:02:39.700Z,29.30
2022-07-30T07:05:12.575Z,29.40
2022-07-30T07:07:56.508Z,29.50
2022-07-30T07:10:27.716Z,29.60
2022-07-30T07:13:07.482Z,29.60
2022-07-30T07:15:37.609Z,29.50
2022-07-30T07:18:09.006Z,29.40
2022-07-30T07:20:39.077Z,29.40
2022-07-30T07:23:12.282Z,29.40
2022-07-30T07:25:41.730Z,29.40
2022-07-30T07:28:11.591Z,29.30
2022-07-30T07:30:42.086Z,29.40
2022-07-30T07:33:10.077Z,29.30
2022-07-30T07:35:48.481Z,29.40
2022-07-30T07:38:22.666Z,29.40
2022-07-30T07:40:51.047Z,29.40
2022-07-30T07:43:18.740Z,29.30
2022-07-30T07:45:46.318Z,29.30
2022-07-30T07:48:14.127Z,29.40
2022-07-30T07:50:59.964Z,29.50
2022-07-30T07:53:30.347Z,29.60
2022-07-30T07:55:58.833Z,29.60
2022-07-30T07:58:26.889Z,29.70
2022-07-30T08:00:58.504Z,29.70
2022-07-30T08:03:45.747Z,29.80
2022-07-30T08:06:39.329Z,30.00
2022-07-30T08:09:24.801Z,30.20
2022-07-30T08:12:17.990Z,30.30
2022-07-30T08:15:04.376Z,30.50
2022-07-30T08:17:51.902Z,30.50
2022-07-30T08:20:24.976Z,30.50
2022-07-30T08:22:52.636Z,30.60
2022-07-30T08:25:24.305Z,30.50
2022-07-30T08:27:52.699Z,30.50
2022-07-30T08:30:20.702Z,30.50
2022-07-30T08:32:48.218Z,30.50
2022-07-30T08:35:15.631Z,30.50
2022-07-30T08:37:43.024Z,30.60
2022-07-30T08:40:10.955Z,30.60
2022-07-30T08:42:49.777Z,30.60
2022-07-30T08:45:18.254Z,30.60
2022-07-30T08:47:47.124Z,30.70
2022-07-30T08:50:23.081Z,30.80
2022-07-30T08:53:17.612Z,30.90
2022-07-30T08:55:46.056Z,31.10
2022-07-30T08:58:35.032Z,31.10
2022-07-30T09:01:05.198Z,31.40
2022-07-30T09:03:33.097Z,31.50
2022-07-30T09:06:03.465Z,31.60
2022-07-30T09:08:31.322Z,31.80
2022-07-30T09:10:59.737Z,31.90
2022-07-30T09:13:31.048Z,31.90
2022-07-30T09:16:00.530Z,31.70
2022-07-30T09:18:35.955Z,31.60
2022-07-30T09:21:21.496Z,31.60
2022-07-30T09:24:11.370Z,31.70
2022-07-30T09:26:56.362Z,31.70
2022-07-30T09:29:59.966Z,31.70
2022-07-30T09:32:51.648Z,31.70
2022-07-30T09:35:44.870Z,31.60
2022-07-30T09:38:13.127Z,31.50
2022-07-30T09:40:57.801Z,31.50
2022-07-30T09:43:51.792Z,31.60
2022-07-30T09:46:48.062Z,31.80
2022-07-30T09:49:37.317Z,31.90
2022-07-30T09:52:04.777Z,31.70
2022-07-30T09:54:52.583Z,31.70
2022-07-30T09:57:27.343Z,31.70
2022-07-30T10:00:23.711Z,31.60
2022-07-30T10:03:41.768Z,31.60
2022-07-30T10:06:34.538Z,31.40
2022-07-30T10:09:14.300Z,31.10
2022-07-30T10:11:45.028Z,31.10
2022-07-30T10:14:12.943Z,31.20
2022-07-30T10:16:41.647Z,31.20
2022-07-30T10:19:13.652Z,31.10
2022-07-30T10:22:24.844Z,31.20
2022-07-30T10:25:29.382Z,31.00
2022-07-30T10:28:20.713Z,31.00
2022-07-30T10:30:51.144Z,30.90
2022-07-30T10:33:34.866Z,31.10
2022-07-30T10:36:05.236Z,31.10
2022-07-30T10:38:39.151Z,31.10
2022-07-30T10:41:42.973Z,31.10
2022-07-30T10:44:29.969Z,31.20
2022-07-30T10:47:07.646Z,31.30
2022-07-30T10:49:41.543Z,31.40
2022-07-30T10:52:11.165Z,31.40
2022-07-30T10:54:47.472Z,31.40
2022-07-30T10:57:31.729Z,31.50
2022-07-30T11:00:00.765Z,31.60
2022-07-30T11:02:35.534Z,31.50
2022-07-30T11:05:44.096Z,31.50
2022-07-30T11:08:35.734Z,31.60
2022-07-30T11:12:15.956Z,31.60
2022-07-30T11:14:18.212Z,31.60
2022-07-30T11:16:51.332Z,31.80
2022-07-30T11:19:53.145Z,31.90
2022-07-30T11:22:27.239Z,31.90
2022-07-30T11:24:55.116Z,31.90
2022-07-30T11:27:36.195Z,31.90
2022-07-30T11:30:08.200Z,31.90
2022-07-30T11:32:36.778Z,32.00
2022-07-30T11:35:24.444Z,31.90
2022-07-30T11:38:18.915Z,31.90
2022-07-30T11:40:46.362Z,31.90
2022-07-30T11:43:19.645Z,32.00
2022-07-30T11:45:49.485Z,32.20
2022-07-30T11:48:19.332Z,32.20
2022-07-30T11:50:48.497Z,32.40
2022-07-30T11:53:20.692Z,32.30
2022-07-30T11:55:54.340Z,32.20
2022-07-30T11:58:28.405Z,32.00
2022-07-30T12:00:57.073Z,31.90
2022-07-30T12:03:26.801Z,31.90
2022-07-30T12:06:07.245Z,31.80
2022-07-30T12:08:42.278Z,31.60
2022-07-30T12:11:10.712Z,31.60
2022-07-30T12:13:42.868Z,31.70
2022-07-30T12:16:16.674Z,31.80
2022-07-30T12:18:46.941Z,31.90
2022-07-30T12:21:17.860Z,31.90
2022-07-30T12:23:59.581Z,31.90
2022-07-30T12:26:30.086Z,32.10
2022-07-30T12:28:59.526Z,32.30
2022-07-30T12:31:27.899Z,32.40
2022-07-30T12:33:59.159Z,32.50
2022-07-30T12:36:36.200Z,32.70
2022-07-30T12:39:06.607Z,32.70
2022-07-30T12:41:45.534Z,32.50
2022-07-30T12:44:36.722Z,32.40
2022-07-30T12:47:06.537Z,32.20
2022-07-30T12:49:36.632Z,32.00
2022-07-30T12:52:29.341Z,31.90
2022-07-30T12:55:12.330Z,31.60
2022-07-30T12:57:58.229Z,31.30
2022-07-30T13:00:47.064Z,31.00
2022-07-30T13:03:26.140Z,31.00
2022-07-30T13:05:57.389Z,30.90
2022-07-30T13:08:45.552Z,30.90
2022-07-30T13:11:13.220Z,31.10
2022-07-30T13:13:40.583Z,31.70
2022-07-30T13:16:07.967Z,32.60
2022-07-30T13:18:36.321Z,33.50
2022-07-30T13:21:05.325Z,33.80
2022-07-30T13:23:32.683Z,34.20
2022-07-30T13:26:00.108Z,34.00
2022-07-30T13:28:28.114Z,33.80
2022-07-30T13:30:56.903Z,34.50
2022-07-30T13:33:24.630Z,35.30
2022-07-30T13:35:52.233Z,36.10
2022-07-30T13:38:19.403Z,36.60
2022-07-30T13:40:46.753Z,36.90
2022-07-30T13:43:14.105Z,37.50
2022-07-30T13:45:41.495Z,38.10
2022-07-30T13:48:08.697Z,38.10
2022-07-30T13:50:35.972Z,38.20
2022-07-30T13:53:03.349Z,37.00
2022-07-30T13:55:30.919Z,35.80
2022-07-30T13:57:58.380Z,34.60
2022-07-30T14:00:25.692Z,33.80
2022-07-30T14:02:52.957Z,33.20
2022-07-30T14:05:20.243Z,32.80
2022-07-30T14:07:47.397Z,32.40
2022-07-30T14:10:14.576Z,32.30
2022-07-30T14:12:41.746Z,32.00
2022-07-30T14:15:09.888Z,31.80
2022-07-30T14:17:37.137Z,31.70
2022-07-30T14:20:04.992Z,31.60
2022-07-30T14:22:32.291Z,31.50
2022-07-30T14:25:00.397Z,31.30
2022-07-30T14:27:27.589Z,31.20
2022-07-30T14:29:54.757Z,31.10
2022-07-30T14:32:23.486Z,31.10
2022-07-30T14:34:50.963Z,31.10
2022-07-30T14:37:18.404Z,31.00
2022-07-30T14:39:45.589Z,31.00
2022-07-30T14:42:12.965Z,31.00
2022-07-30T14:44:41.623Z,31.00
2022-07-30T14:47:09.488Z,31.00
2022-07-30T14:49:36.886Z,31.00
2022-07-30T14:52:04.146Z,31.00
2022-07-30T14:54:31.550Z,31.00
2022-07-30T14:56:58.867Z,31.00
2022-07-30T14:59:27.717Z,31.00
2022-07-30T15:01:56.146Z,31.00
2022-07-30T15:04:23.689Z,30.90
2022-07-30T15:06:50.981Z,31.00
2022-07-30T15:09:21.828Z,30.90
2022-07-30T15:12:08.338Z,30.90
2022-07-30T15:14:40.278Z,30.90
2022-07-30T15:17:08.601Z,30.80
2022-07-30T15:19:35.762Z,30.80
2022-07-30T15:22:04.080Z,30.80
2022-07-30T15:24:34.332Z,30.70
2022-07-30T15:27:01.548Z,30.70
2022-07-30T15:29:30.186Z,30.60
2022-07-30T15:32:00.265Z,30.60
2022-07-30T15:34:28.559Z,30.70
2022-07-30T15:36:56.009Z,30.60
2022-07-30T15:39:23.711Z,30.60
2022-07-30T15:41:53.980Z,30.60
2022-07-30T15:44:21.241Z,30.50
2022-07-30T15:46:48.401Z,30.40
2022-07-30T15:49:15.665Z,30.20
2022-07-30T15:51:48.563Z,30.10
2022-07-30T15:54:22.810Z,30.00
2022-07-30T15:56:54.557Z,29.80
2022-07-30T15:59:29.339Z,29.60
2022-07-30T16:01:56.707Z,29.40
2022-07-30T16:04:31.794Z,29.00
2022-07-30T16:07:00.989Z,28.70
2022-07-30T16:09:28.426Z,28.40
2022-07-30T16:11:55.991Z,28.20
2022-07-30T16:14:23.510Z,28.10
2022-07-30T16:16:52.773Z,28.00
2022-07-30T16:19:19.991Z,27.90
2022-07-30T16:21:47.186Z,27.70
2022-07-30T16:24:14.376Z,27.60
2022-07-30T16:26:41.976Z,27.60
2022-07-30T16:29:13.557Z,27.50
2022-07-30T16:31:41.543Z,27.40
2022-07-30T16:34:08.719Z,27.40
2022-07-30T16:36:36.109Z,27.30
2022-07-30T16:39:04.116Z,27.30
2022-07-30T16:41:31.374Z,27.20
2022-07-30T16:43:58.698Z,27.20
2022-07-30T16:46:26.056Z,27.20
2022-07-30T16:48:53.331Z,27.20
2022-07-30T16:51:20.765Z,27.20
2022-07-30T16:53:48.752Z,27.20
2022-07-30T16:56:16.752Z,27.20
2022-07-30T16:58:44.337Z,27.20
2022-07-30T17:01:11.637Z,27.30
2022-07-30T17:03:38.882Z,27.10
2022-07-30T17:06:06.150Z,27.10
2022-07-30T17:08:33.474Z,27.00
2022-07-30T17:11:00.685Z,27.10
2022-07-30T17:13:28.405Z,27.10
2022-07-30T17:15:55.618Z,27.10
2022-07-30T17:18:24.178Z,27.10
2022-07-30T17:20:52.044Z,27.00
2022-07-30T17:23:19.246Z,27.00
2022-07-30T17:25:46.505Z,27.00
2022-07-30T17:28:13.874Z,26.90
2022-07-30T17:30:41.117Z,26.90
2022-07-30T17:33:08.529Z,26.80
2022-07-30T17:35:35.802Z,26.70
2022-07-30T17:38:03.262Z,26.60
2022-07-30T17:40:31.835Z,26.50
2022-07-30T17:43:04.169Z,26.20
2022-07-30T17:45:34.361Z,26.00
2022-07-30T17:48:02.446Z,25.80
2022-07-30T17:50:30.431Z,25.90
2022-07-30T17:52:57.872Z,25.90
2022-07-30T17:55:25.965Z,26.00
2022-07-30T17:57:53.066Z,26.10
2022-07-30T18:00:21.353Z,26.10
2022-07-30T18:02:48.964Z,26.10
2022-07-30T18:05:16.313Z,26.20
2022-07-30T18:07:44.434Z,26.20
2022-07-30T18:10:12.905Z,26.30
2022-07-30T18:12:48.320Z,26.20
2022-07-30T18:15:17.586Z,26.30
2022-07-30T18:17:45.385Z,26.20
2022-07-30T18:20:12.836Z,26.20
2022-07-30T18:22:40.897Z,26.20
2022-07-30T18:25:18.572Z,26.20
2022-07-30T18:27:47.847Z,26.00
2022-07-30T18:30:15.786Z,25.80
2022-07-30T18:32:43.983Z,25.50
2022-07-30T18:35:14.530Z,25.20
2022-07-30T18:37:43.513Z,25.00
2022-07-30T18:40:12.799Z,25.00
2022-07-30T18:42:40.008Z,25.10
2022-07-30T18:45:07.829Z,25.20
2022-07-30T18:47:35.164Z,25.40
2022-07-30T18:50:02.568Z,25.50
2022-07-30T18:52:30.296Z,25.20
2022-07-30T18:54:57.496Z,25.20
2022-07-30T18:57:24.688Z,25.00
2022-07-30T18:59:51.948Z,24.80
2022-07-30T19:02:19.375Z,24.70
2022-07-30T19:04:46.611Z,24.40
2022-07-30T19:07:13.850Z,24.20
2022-07-30T19:09:42.910Z,24.20
2022-07-30T19:12:10.145Z,24.10
2022-07-30T19:14:37.774Z,24.00
2022-07-30T19:17:13.937Z,23.80
2022-07-30T19:19:42.669Z,23.80
2022-07-30T19:22:10.140Z,23.80
2022-07-30T19:24:38.390Z,23.80
2022-07-30T19:29:38.720Z,23.80
2022-07-30T19:32:06.475Z,23.70
2022-07-30T19:34:34.690Z,23.50
2022-07-30T19:37:02.080Z,23.60
2022-07-30T19:39:29.294Z,23.60
2022-07-30T19:42:04.091Z,23.70
2022-07-30T19:44:32.393Z,23.90
2022-07-30T19:46:59.898Z,24.00
2022-07-30T19:49:29.632Z,24.10
2022-07-30T19:52:23.696Z,24.00
2022-07-30T19:54:52.849Z,23.70
2022-07-30T19:57:20.641Z,23.80
2022-07-30T19:59:59.930Z,23.70
2022-07-30T20:02:39.521Z,23.60
2022-07-30T20:05:11.048Z,23.60
2022-07-30T20:07:39.785Z,23.60
2022-07-30T20:10:11.127Z,23.50
2022-07-30T20:12:49.178Z,23.40
2022-07-30T20:15:17.439Z,23.40
2022-07-30T20:17:46.363Z,23.30
2022-07-30T20:20:14.762Z,23.20
2022-07-30T20:22:41.962Z,23.00
2022-07-30T20:25:10.959Z,23.00
2022-07-30T20:27:40.339Z,23.00
2022-07-30T20:30:09.479Z,23.00
2022-07-30T20:32:39.940Z,23.00
2022-07-30T20:35:12.000Z,23.00
2022-07-30T20:37:54.848Z,22.90
2022-07-30T20:40:24.488Z,23.00
2022-07-30T20:42:54.730Z,22.80
2022-07-30T20:45:24.684Z,22.80
2022-07-30T20:47:56.517Z,22.80
2022-07-30T20:50:30.412Z,22.80
2022-07-30T20:53:13.336Z,22.80
2022-07-30T20:55:41.316Z,22.70
2022-07-30T20:58:16.525Z,22.60
2022-07-30T21:00:49.823Z,22.50
2022-07-30T21:03:21.963Z,22.60
2022-07-30T21:05:51.275Z,22.50
2022-07-30T21:08:20.275Z,22.60
2022-07-30T21:10:47.753Z,22.60
2022-07-30T21:13:15.268Z,22.60
2022-07-30T21:15:45.414Z,22.60
2022-07-30T21:18:28.666Z,22.60
2022-07-30T21:20:56.987Z,22.60
2022-07-30T21:23:25.086Z,22.60
2022-07-30T21:26:01.445Z,22.50
2022-07-30T21:28:35.132Z,22.40
2022-07-30T21:31:06.978Z,22.40
2022-07-30T21:33:38.697Z,22.40
2022-07-30T21:36:10.446Z,22.50
2022-07-30T21:38:41.793Z,22.60
2022-07-30T21:41:13.888Z,22.60
2022-07-30T21:43:45.980Z,22.50
2022-07-30T21:46:25.076Z,22.60
2022-07-30T21:48:56.672Z,22.50
2022-07-30T21:51:26.672Z,22.40
2022-07-30T21:53:53.983Z,22.40
2022-07-30T21:56:21.291Z,22.50
2022-07-30T21:58:49.134Z,22.50
2022-07-30T22:01:21.691Z,22.50
2022-07-30T22:04:04.569Z,22.50
2022-07-30T22:06:39.510Z,22.60
2022-07-30T22:09:26.268Z,22.60
2022-07-30T22:11:56.855Z,22.70
2022-07-30T22:14:28.114Z,22.70
2022-07-30T22:16:55.527Z,22.70
2022-07-30T22:19:23.336Z,22.80
2022-07-30T22:21:53.298Z,22.80
2022-07-30T22:24:29.916Z,22.90
2022-07-30T22:27:11.585Z,23.00
2022-07-30T22:32:31.085Z,22.90
2022-07-30T22:34:58.823Z,22.90
2022-07-30T22:37:26.725Z,22.80
2022-07-30T22:40:02.029Z,22.80
2022-07-30T22:42:30.373Z,23.00
2022-07-30T22:44:57.661Z,23.00
2022-07-30T22:47:50.705Z,23.10
2022-07-30T22:50:12.532Z,23.10
2022-07-30T22:52:50.162Z,23.20
2022-07-30T22:55:26.520Z,23.30
2022-07-30T22:57:54.347Z,23.20
2022-07-30T23:00:28.141Z,23.20
2022-07-30T23:02:56.923Z,23.10
2022-07-30T23:05:25.102Z,23.10
2022-07-30T23:07:52.501Z,22.90
2022-07-30T23:10:21.066Z,22.90
2022-07-30T23:12:32.684Z,23.00
2022-07-30T23:12:52.001Z,22.90
2022-07-30T23:15:20.213Z,22.80
2022-07-30T23:17:47.941Z,22.80
2022-07-30T23:20:17.700Z,22.70
2022-07-30T23:22:44.958Z,22.70
2022-07-30T23:25:13.217Z,22.70
2022-07-30T23:27:41.404Z,22.70
2022-07-30T23:30:10.255Z,22.70
2022-07-30T23:32:38.451Z,22.70
2022-07-30T23:35:07.304Z,22.70
2022-07-30T23:37:48.036Z,22.60
2022-07-30T23:40:17.285Z,22.60
2022-07-30T23:42:44.584Z,22.50
2022-07-30T23:45:12.022Z,22.50
2022-07-30T23:48:01.263Z,22.50
2022-07-30T23:50:26.371Z,22.50
2022-07-30T23:52:53.699Z,22.60
2022-07-30T23:55:22.390Z,22.50
2022-07-30T23:57:49.558Z,22.50
